Observation data for Reese Center on 11/11/2019      Previous  Date       Current Mesonet Observations  Soil Data  Daily Summary Page  Observations in Plain Language
KREE 110600Z 26008KT 13/08 A2987 RMK A01 T01320078  RH  071%=      5-min Rain = 0
KREE 110605Z 26009KT 14/08 A2987 RMK A01 T01410080  RH  068%=      5-min Rain = 0
KREE 110610Z 26009KT 14/08 A2987 RMK A01 T01440080  RH  066%=      5-min Rain = 0
KREE 110615Z 26010KT 14/08 A2987 RMK A01 T01430080  RH  066%=      5-min Rain = 0
KREE 110620Z 26009KT 14/08 A2987 RMK A01 T01410080  RH  067%=      5-min Rain = 0
KREE 110625Z 25008KT 14/08 A2987 RMK A01 T01390080  RH  068%=      5-min Rain = 0
KREE 110630Z 25009KT 14/08 A2986 RMK A01 T01360079  RH  070%=      5-min Rain = 0
KREE 110635Z 26009KT 14/08 A2986 RMK A01 T01360080  RH  070%=      5-min Rain = 0
KREE 110640Z 25009KT 14/08 A2986 RMK A01 T01380080  RH  069%=      5-min Rain = 0
KREE 110645Z 26008KT 14/08 A2986 RMK A01 T01390080  RH  069%=      5-min Rain = 0
KREE 110650Z 26009KT 14/08 A2986 RMK A01 T01390080  RH  069%=      5-min Rain = 0
KREE 110655Z 26009KT 14/08 A2986 RMK A01 T01380080  RH  069%=      5-min Rain = 0
KREE 110700Z 26009KT 14/08 A2986 RMK A01 T01400080  RH  068%=      5-min Rain = 0
KREE 110705Z 26010KT 14/08 A2986 RMK A01 T01430080  RH  067%=      5-min Rain = 0
KREE 110710Z 26009KT 14/08 A2987 RMK A01 T01440080  RH  066%=      5-min Rain = 0
KREE 110715Z 26010KT 15/08 A2987 RMK A01 T01460080  RH  066%=      5-min Rain = 0
KREE 110720Z 26008KT 14/08 A2987 RMK A01 T01440080  RH  066%=      5-min Rain = 0
KREE 110725Z 26008KT 14/08 A2988 RMK A01 T01400080  RH  068%=      5-min Rain = 0
KREE 110730Z 29006KT 14/08 A2988 RMK A01 T01380080  RH  069%=      5-min Rain = 0
KREE 110735Z 33007KT 13/08 A2989 RMK A01 T01290078  RH  072%=      5-min Rain = 0
KREE 110740Z 36007KT 12/08 A2989 RMK A01 T01150076  RH  078%=      5-min Rain = 0
KREE 110745Z 03007KT 11/07 A2989 RMK A01 T01100074  RH  080%=      5-min Rain = 0
KREE 110750Z 02007KT 11/08 A2989 RMK A01 T01090076  RH  081%=      5-min Rain = 0
KREE 110755Z 00008KT 11/07 A299 RMK A01 T01080074  RH  081%=      5-min Rain = 0
KREE 110800Z 00004KT 11/07 A2989 RMK A01 T01060074  RH  082%=      5-min Rain = 0
KREE 110805Z 34004KT 11/07 A2989 RMK A01 T01050074  RH  082%=      5-min Rain = 0
KREE 110810Z 35005KT 10/07 A2989 RMK A01 T01030071  RH  081%=      5-min Rain = 0
KREE 110815Z 34005KT 10/07 A2989 RMK A01 T01010071  RH  083%=      5-min Rain = 0
KREE 110820Z 34005KT 10/07 A2989 RMK A01 T01030073  RH  083%=      5-min Rain = 0
KREE 110825Z 36005KT 11/07 A299 RMK A01 T01060072  RH  080%=      5-min Rain = 0
KREE 110830Z 34004KT 11/07 A299 RMK A01 T01050070  RH  081%=      5-min Rain = 0
KREE 110835Z 33004KT 11/07 A299 RMK A01 T01060071  RH  080%=      5-min Rain = 0
KREE 110840Z 33005KT 11/07 A299 RMK A01 T01090071  RH  079%=      5-min Rain = 0
KREE 110845Z 33006KT 11/07 A299 RMK A01 T01080069  RH  078%=      5-min Rain = 0
KREE 110850Z 33007KT 11/07 A299 RMK A01 T01060069  RH  079%=      5-min Rain = 0
KREE 110855Z 32007KT 11/07 A299 RMK A01 T01050069  RH  079%=      5-min Rain = 0
KREE 110900Z 31007KT 11/07 A299 RMK A01 T01050068  RH  079%=      5-min Rain = 0
KREE 110905Z 32007KT 11/07 A2991 RMK A01 T01060066  RH  077%=      5-min Rain = 0
KREE 110910Z 32007KT 11/06 A2991 RMK A01 T01070063  RH  076%=      5-min Rain = 0
KREE 110915Z 32006KT 11/06 A2991 RMK A01 T01070061  RH  074%=      5-min Rain = 0
KREE 110920Z 32006KT 11/06 A2991 RMK A01 T01050060  RH  075%=      5-min Rain = 0
KREE 110925Z 32006KT 10/06 A2992 RMK A01 T01040059  RH  074%=      5-min Rain = 0
KREE 110930Z 32007KT 10/06 A2992 RMK A01 T01040057  RH  074%=      5-min Rain = 0
KREE 110935Z 32008KT 11/06 A2993 RMK A01 T01050056  RH  073%=      5-min Rain = 0
KREE 110940Z 33013G18KT 11/05 A2993 RMK A01 T01100048  RH  067%=      5-min Rain = 0
KREE 110945Z 34015G20KT 11/04 A2994 RMK A01 T01090039  RH  063%=      5-min Rain = 0
KREE 110950Z 35016KT 10/03 A2994 RMK A01 T01020034  RH  063%=      5-min Rain = 0
KREE 110955Z 00018KT 10/02 A2995 RMK A01 T00970024  RH  061%=      5-min Rain = 0
KREE 111000Z 36016G23KT 09/02 A2996 RMK A01 T00930022  RH  062%=      5-min Rain = 0
KREE 111005Z 36018G23KT 09/02 A2996 RMK A01 T00900020  RH  062%=      5-min Rain = 0
KREE 111010Z 36019G25KT 09/02 A2997 RMK A01 T00870018  RH  063%=      5-min Rain = 0
KREE 111015Z 36019G27KT 08/02 A2997 RMK A01 T00840019  RH  064%=      5-min Rain = 0
KREE 111020Z 01021G26KT 08/02 A2998 RMK A01 T00800019  RH  066%=      5-min Rain = 0
KREE 111025Z 00018G25KT 08/02 A2999 RMK A01 T00770020  RH  068%=      5-min Rain = 0
KREE 111030Z 00019G25KT 08/02 A2999 RMK A01 T00750020  RH  069%=      5-min Rain = 0
KREE 111035Z 36019G24KT 07/02 A2999 RMK A01 T00720020  RH  071%=      5-min Rain = 0
KREE 111040Z 36018KT 07/02 A30 RMK A01 T00700020  RH  072%=      5-min Rain = 0
KREE 111045Z 36019G25KT 07/02 A30 RMK A01 T00680021  RH  073%=      5-min Rain = 0
KREE 111050Z 00023G29KT 07/02 A30 RMK A01 T00670020  RH  073%=      5-min Rain = 0
KREE 111055Z 00023KT 07/02 A3001 RMK A01 T00650020  RH  074%=      5-min Rain = 0
KREE 111100Z 00019G26KT 06/02 A3002 RMK A01 T00640021  RH  075%=      5-min Rain = 0
KREE 111105Z 00020G28KT 06/02 A3002 RMK A01 T00630022  RH  076%=      5-min Rain = 0
KREE 111110Z 00024G29KT 06/02 A3003 RMK A01 T00610022  RH  077%=      5-min Rain = 0
KREE 111115Z 00022G28KT 06/02 A3004 RMK A01 T00610023  RH  078%=      5-min Rain = 0
KREE 111120Z 00022G29KT 06/02 A3004 RMK A01 T00610024  RH  078%=      5-min Rain = 0
KREE 111125Z 01023G28KT 06/03 A3004 RMK A01 T00610025  RH  079%=      5-min Rain = 0
KREE 111130Z 01024G32KT 06/03 A3005 RMK A01 T00610027  RH  080%=      5-min Rain = 0
KREE 111135Z 01024G30KT 06/03 A3005 RMK A01 T00610027  RH  080%=      5-min Rain = 0
KREE 111140Z 01025G34KT 06/03 A3006 RMK A01 T00610026  RH  079%=      5-min Rain = 0
KREE 111145Z 01022G29KT 06/03 A3007 RMK A01 T00600025  RH  079%=      5-min Rain = 0
KREE 111150Z 01028G37KT 06/02 A3008 RMK A01 T00570022  RH  079%=      5-min Rain = 0
KREE 111155Z 01024G35KT 05/02 A3008 RMK A01 T00540021  RH  080%=      5-min Rain = 0
KREE 111200Z 00026G36KT 05/02 A3009 RMK A01 T00510018  RH  080%=      5-min Rain = 0
KREE 111205Z 01029G35KT 04/01 A3009 RMK A01 T00440012  RH  081%=      5-min Rain = 0
KREE 111210Z 01025G32KT 04/01 A301 RMK A01 T00420012  RH  082%=      5-min Rain = 0
KREE 111215Z 01022G29KT 04/01 A3011 RMK A01 T00410012  RH  082%=      5-min Rain = 0
KREE 111220Z 01027G34KT 04/01 A3012 RMK A01 T00380009  RH  082%=      5-min Rain = 0
KREE 111225Z 01026G33KT 03/01 A3012 RMK A01 T00340006  RH  083%=      5-min Rain = 0
KREE 111230Z 01025G32KT 03/00 A3013 RMK A01 T00300003  RH  084%=      5-min Rain = 0
KREE 111235Z 01024G31KT 03/00 A3013 RMK A01 T00270002  RH  084%=      5-min Rain = 0
KREE 111240Z 01024G34KT 03/00 A3014 RMK A01 T002500-0  RH  084%=      5-min Rain = 0
KREE 111245Z 02026G34KT 02/M01 A3015 RMK A01 T00201009  RH  082%=      5-min Rain = 0
KREE 111250Z 01030G39KT 02/M01 A3015 RMK A01 T00171013  RH  082%=      5-min Rain = 0
KREE 111255Z 01030G39KT 01/M02 A3015 RMK A01 T00131017  RH  081%=      5-min Rain = 0
KREE 111300Z 02029G35KT 01/M02 A3016 RMK A01 T00101020  RH  081%=      5-min Rain = 0
KREE 111305Z 01030G40KT 01/M02 A3016 RMK A01 T00091022  RH  081%=      5-min Rain = 0
KREE 111310Z 01025G36KT 01/M02 A3017 RMK A01 T00081022  RH  081%=      5-min Rain = 0
KREE 111315Z 01026G33KT 01/M02 A3018 RMK A01 T00071023  RH  082%=      5-min Rain = 0
KREE 111320Z 01024G32KT 01/M02 A3018 RMK A01 T00061022  RH  083%=      5-min Rain = 0
KREE 111325Z 01025G35KT 01/M02 A3019 RMK A01 T00051022  RH  083%=      5-min Rain = 0
KREE 111330Z 01021G33KT 01/M02 A302 RMK A01 T00051022  RH  083%=      5-min Rain = 0
KREE 111335Z 01025G32KT 00/M03 A302 RMK A01 T00031025  RH  082%=      5-min Rain = 0
KREE 111340Z 01025G33KT 00/M03 A302 RMK A01 T00031026  RH  082%=      5-min Rain = 0
KREE 111345Z 01022G32KT 00/M03 A3021 RMK A01 T00021027  RH  082%=      5-min Rain = 0
KREE 111350Z 02026G32KT 00/M03 A3021 RMK A01 T00011028  RH  082%=      5-min Rain = 0
KREE 111355Z 01026G35KT 00/03 A3022 RMK A01 T00000-29  RH  082%=      5-min Rain = 0
KREE 111400Z 01024G31KT 00/03 A3022 RMK A01 T00000-29  RH  082%=      5-min Rain = 0
KREE 111405Z 01025G30KT M00/M03 A3023 RMK A01 T10011030  RH  082%=      5-min Rain = 0
KREE 111410Z 01021G29KT 00/03 A3023 RMK A01 T00-00-29  RH  082%=      5-min Rain = 0
KREE 111415Z 01025G35KT M00/M03 A3023 RMK A01 T10011029  RH  082%=      5-min Rain = 0
KREE 111420Z 01028G37KT M00/M03 A3024 RMK A01 T10031031  RH  082%=      5-min Rain = 0
KREE 111425Z 01028G36KT M00/M03 A3024 RMK A01 T10041031  RH  083%=      5-min Rain = 0
KREE 111430Z 01025G33KT M00/M03 A3025 RMK A01 T10041031  RH  083%=      5-min Rain = 0
KREE 111435Z 02024G31KT M00/M03 A3025 RMK A01 T10041030  RH  084%=      5-min Rain = 0
KREE 111440Z 01026G32KT M01/M03 A3026 RMK A01 T10051031  RH  083%=      5-min Rain = 0
KREE 111445Z 02027G34KT M01/M04 A3027 RMK A01 T10071035  RH  082%=      5-min Rain = 0
KREE 111450Z 01024G33KT M01/M04 A3027 RMK A01 T10081035  RH  083%=      5-min Rain = 0
KREE 111455Z 00026G36KT M01/M04 A3028 RMK A01 T10111037  RH  084%=      5-min Rain = 0
KREE 111500Z 01030G38KT M02/M04 A3029 RMK A01 T10161041  RH  084%=      5-min Rain = 0
KREE 111505Z 01031G40KT M02/M04 A303 RMK A01 T10181044  RH  083%=      5-min Rain = 0
KREE 111510Z 01026G36KT M02/M05 A3031 RMK A01 T10181046  RH  082%=      5-min Rain = 0
KREE 111515Z 02030G38KT M02/M05 A3031 RMK A01 T10201049  RH  081%=      5-min Rain = 0
KREE 111520Z 02031G38KT M02/M05 A3032 RMK A01 T10211049  RH  082%=      5-min Rain = 0
KREE 111525Z 02029G38KT M02/M05 A3032 RMK A01 T10211050  RH  082%=      5-min Rain = 0
KREE 111530Z 01029G38KT M02/M05 A3032 RMK A01 T10211049  RH  082%=      5-min Rain = 0
KREE 111535Z 01028G34KT M02/M05 A3032 RMK A01 T10211048  RH  082%=      5-min Rain = 0
KREE 111540Z 02027G34KT M02/M05 A3033 RMK A01 T10211049  RH  082%=      5-min Rain = 0
KREE 111545Z 01021G29KT M02/M05 A3033 RMK A01 T10201048  RH  082%=      5-min Rain = 0
KREE 111550Z 00024G32KT M02/M05 A3034 RMK A01 T10221051  RH  082%=      5-min Rain = 0
KREE 111555Z 01026G33KT M02/M05 A3035 RMK A01 T10241053  RH  081%=      5-min Rain = 0
KREE 111600Z 01029G37KT M03/M05 A3035 RMK A01 T10261054  RH  082%=      5-min Rain = 0
KREE 111605Z 01029G36KT M03/M06 A3036 RMK A01 T10281055  RH  082%=      5-min Rain = 0
KREE 111610Z 01028G36KT M03/M06 A3036 RMK A01 T10281055  RH  083%=      5-min Rain = 0
KREE 111615Z 01027G37KT M03/M06 A3036 RMK A01 T10281056  RH  082%=      5-min Rain = 0
KREE 111620Z 01027G36KT M03/M06 A3037 RMK A01 T10281058  RH  081%=      5-min Rain = 0
KREE 111625Z 01027G34KT M03/M06 A3037 RMK A01 T10281058  RH  081%=      5-min Rain = 0
KREE 111630Z 01027G38KT M03/M06 A3037 RMK A01 T10311060  RH  081%=      5-min Rain = 0
KREE 111635Z 01026G33KT M03/M06 A3037 RMK A01 T10311059  RH  082%=      5-min Rain = 0
KREE 111640Z 01029G35KT M03/M06 A3038 RMK A01 T10311062  RH  080%=      5-min Rain = 0
KREE 111645Z 01026G35KT M03/M07 A3038 RMK A01 T10321065  RH  079%=      5-min Rain = 0
KREE 111650Z 02027G34KT M03/M07 A3039 RMK A01 T10321066  RH  078%=      5-min Rain = 0
KREE 111655Z 02027G38KT M03/M07 A3039 RMK A01 T10311066  RH  078%=      5-min Rain = 0
KREE 111700Z 02026G32KT M03/M07 A3039 RMK A01 T10311067  RH  077%=      5-min Rain = 0
KREE 111705Z 02026G33KT M03/M07 A304 RMK A01 T10301067  RH  077%=      5-min Rain = 0
KREE 111710Z 01024G32KT M03/M07 A304 RMK A01 T10301066  RH  077%=      5-min Rain = 0
KREE 111715Z 02025G34KT M03/M07 A304 RMK A01 T10291066  RH  076%=      5-min Rain = 0
KREE 111720Z 02025G33KT M03/M07 A304 RMK A01 T10281066  RH  076%=      5-min Rain = 0
KREE 111725Z 02026G34KT M03/M07 A304 RMK A01 T10291066  RH  076%=      5-min Rain = 0
KREE 111730Z 02024G31KT M03/M07 A304 RMK A01 T10271065  RH  076%=      5-min Rain = 0
KREE 111735Z 02026G33KT M03/M07 A304 RMK A01 T10281066  RH  076%=      5-min Rain = 0
KREE 111740Z 02025G31KT M03/M07 A304 RMK A01 T10281067  RH  075%=      5-min Rain = 0
KREE 111745Z 02027G32KT M03/M07 A304 RMK A01 T10271067  RH  075%=      5-min Rain = 0
KREE 111750Z 02026G35KT M03/M07 A3041 RMK A01 T10291072  RH  074%=      5-min Rain = 0
KREE 111755Z 01027G35KT M03/M07 A3041 RMK A01 T10301073  RH  073%=      5-min Rain = 0
KREE 111800Z 02026G33KT M03/M07 A3041 RMK A01 T10301073  RH  073%=      5-min Rain = 0
KREE 111805Z 02025G31KT M03/M07 A3042 RMK A01 T10291073  RH  072%=      5-min Rain = 0
KREE 111810Z 01023G30KT M03/M07 A3042 RMK A01 T10301073  RH  073%=      5-min Rain = 0
KREE 111815Z 01023G29KT M03/M07 A3042 RMK A01 T10301072  RH  074%=      5-min Rain = 0
KREE 111820Z 01021G27KT M03/M07 A3042 RMK A01 T10311071  RH  075%=      5-min Rain = 0
KREE 111825Z 00024G30KT M03/M07 A3042 RMK A01 T10331074  RH  074%=      5-min Rain = 0
KREE 111830Z 01023G32KT M04/M08 A3042 RMK A01 T10351076  RH  074%=      5-min Rain = 0
KREE 111835Z 02024G30KT M03/M08 A3042 RMK A01 T10341077  RH  073%=      5-min Rain = 0
KREE 111840Z 02025G33KT M03/M08 A3042 RMK A01 T10331081  RH  071%=      5-min Rain = 0
KREE 111845Z 02024G29KT M03/M08 A3041 RMK A01 T10331082  RH  070%=      5-min Rain = 0
KREE 111850Z 01024G30KT M03/M08 A3041 RMK A01 T10311082  RH  069%=      5-min Rain = 0
KREE 111855Z 01025G32KT M03/M08 A304 RMK A01 T10311082  RH  069%=      5-min Rain = 0
KREE 111900Z 01023G28KT M03/M08 A3041 RMK A01 T10301081  RH  069%=      5-min Rain = 0
KREE 111905Z 01022G30KT M03/M08 A3041 RMK A01 T10311081  RH  069%=      5-min Rain = 0
KREE 111910Z 01023G30KT M03/M08 A3041 RMK A01 T10301081  RH  069%=      5-min Rain = 0
KREE 111915Z 01023G28KT M03/M08 A3041 RMK A01 T10301083  RH  068%=      5-min Rain = 0
KREE 111920Z 01023G29KT M03/M08 A3041 RMK A01 T10311084  RH  068%=      5-min Rain = 0
KREE 111925Z 01025G32KT M03/M09 A3042 RMK A01 T10311087  RH  066%=      5-min Rain = 0
KREE 111930Z 01022G28KT M03/M09 A3042 RMK A01 T10291086  RH  066%=      5-min Rain = 0
KREE 111935Z 01024G29KT M03/M09 A3042 RMK A01 T10301088  RH  065%=      5-min Rain = 0
KREE 111940Z 01022G29KT M03/M09 A3042 RMK A01 T10281087  RH  065%=      5-min Rain = 0
KREE 111945Z 01023G29KT M03/M09 A3042 RMK A01 T10261087  RH  064%=      5-min Rain = 0
KREE 111950Z 01024G30KT M03/M09 A3042 RMK A01 T10251088  RH  063%=      5-min Rain = 0
KREE 111955Z 02026G32KT M03/M09 A3042 RMK A01 T10261090  RH  062%=      5-min Rain = 0
KREE 112000Z 02023G29KT M02/M09 A3042 RMK A01 T10241090  RH  061%=      5-min Rain = 0
KREE 112005Z 01023G31KT M02/M09 A3042 RMK A01 T10241091  RH  060%=      5-min Rain = 0
KREE 112010Z 01024G31KT M02/M09 A3042 RMK A01 T10241092  RH  060%=      5-min Rain = 0
KREE 112015Z 01023G30KT M02/M09 A3043 RMK A01 T10221092  RH  060%=      5-min Rain = 0
KREE 112020Z 01024G30KT M02/M09 A3043 RMK A01 T10231094  RH  059%=      5-min Rain = 0
KREE 112025Z 01026G34KT M02/M09 A3043 RMK A01 T10231094  RH  059%=      5-min Rain = 0
KREE 112030Z 02023G30KT M02/M09 A3043 RMK A01 T10221094  RH  059%=      5-min Rain = 0
KREE 112035Z 02022G28KT M02/M09 A3043 RMK A01 T10201093  RH  058%=      5-min Rain = 0
KREE 112040Z 01022G29KT M02/M09 A3044 RMK A01 T10201092  RH  059%=      5-min Rain = 0
KREE 112045Z 01023G29KT M02/M09 A3044 RMK A01 T10221092  RH  059%=      5-min Rain = 0
KREE 112050Z 02020G26KT M02/M09 A3044 RMK A01 T10191091  RH  059%=      5-min Rain = 0
KREE 112055Z 01023G29KT M02/M09 A3044 RMK A01 T10221093  RH  059%=      5-min Rain = 0
KREE 112100Z 02023G29KT M02/M09 A3044 RMK A01 T10221093  RH  059%=      5-min Rain = 0
KREE 112105Z 01022G30KT M02/M10 A3045 RMK A01 T10221095  RH  058%=      5-min Rain = 0
KREE 112110Z 01023G30KT M02/M10 A3045 RMK A01 T10221096  RH  058%=      5-min Rain = 0
KREE 112115Z 02021G28KT M02/M09 A3045 RMK A01 T10181093  RH  057%=      5-min Rain = 0
KREE 112120Z 02019G25KT M02/M09 A3044 RMK A01 T10161093  RH  056%=      5-min Rain = 0
KREE 112125Z 02022G30KT M02/M09 A3044 RMK A01 T10151094  RH  055%=      5-min Rain = 0
KREE 112130Z 02021G27KT M01/M10 A3044 RMK A01 T10141095  RH  055%=      5-min Rain = 0
KREE 112135Z 02020G27KT M01/M10 A3045 RMK A01 T10131095  RH  055%=      5-min Rain = 0
KREE 112140Z 02022G27KT M01/M10 A3045 RMK A01 T10121095  RH  054%=      5-min Rain = 0
KREE 112145Z 02021G29KT M01/M10 A3046 RMK A01 T10141097  RH  054%=      5-min Rain = 0
KREE 112150Z 02020G26KT M02/M10 A3047 RMK A01 T10151097  RH  054%=      5-min Rain = 0
KREE 112155Z 02018KT M02/M10 A3047 RMK A01 T10161097  RH  055%=      5-min Rain = 0
KREE 112200Z 01016KT M01/M09 A3048 RMK A01 T10131094  RH  055%=      5-min Rain = 0
KREE 112205Z 01018G24KT M02/M10 A3049 RMK A01 T10151097  RH  054%=      5-min Rain = 0
KREE 112210Z 01015KT M01/M10 A3048 RMK A01 T10141095  RH  055%=      5-min Rain = 0
KREE 112215Z 01015KT M01/M09 A3048 RMK A01 T10121094  RH  054%=      5-min Rain = 0
KREE 112220Z 01018G24KT M01/M10 A3048 RMK A01 T10131095  RH  054%=      5-min Rain = 0
KREE 112225Z 01018KT M01/M10 A3048 RMK A01 T10141096  RH  054%=      5-min Rain = 0
KREE 112230Z 02015G22KT M01/M10 A3048 RMK A01 T10131095  RH  054%=      5-min Rain = 0
KREE 112235Z 01017G23KT M01/M10 A3048 RMK A01 T10131096  RH  054%=      5-min Rain = 0
KREE 112240Z 02016KT M01/M10 A3048 RMK A01 T10131095  RH  054%=      5-min Rain = 0
KREE 112245Z 02015KT M01/M10 A3048 RMK A01 T10131095  RH  054%=      5-min Rain = 0
KREE 112250Z 02015G21KT M01/M10 A3048 RMK A01 T10141096  RH  054%=      5-min Rain = 0
KREE 112255Z 02017KT M01/M10 A3048 RMK A01 T10121095  RH  054%=      5-min Rain = 0
KREE 112300Z 01015G20KT M01/M09 A3048 RMK A01 T10101093  RH  054%=      5-min Rain = 0
KREE 112305Z 01019G24KT M01/M10 A3048 RMK A01 T10101095  RH  053%=      5-min Rain = 0
KREE 112310Z 02016G22KT M01/M10 A3048 RMK A01 T10101095  RH  053%=      5-min Rain = 0
KREE 112315Z 02018G23KT M01/M10 A3048 RMK A01 T10111096  RH  053%=      5-min Rain = 0
KREE 112320Z 02016G22KT M01/M10 A3048 RMK A01 T10111096  RH  053%=      5-min Rain = 0
KREE 112325Z 02018G24KT M01/M10 A3048 RMK A01 T10111096  RH  053%=      5-min Rain = 0
KREE 112330Z 02017G22KT M01/M10 A3048 RMK A01 T10111097  RH  053%=      5-min Rain = 0
KREE 112335Z 01019G25KT M01/M10 A3049 RMK A01 T10111097  RH  053%=      5-min Rain = 0
KREE 112340Z 01019G25KT M01/M10 A3049 RMK A01 T10111098  RH  052%=      5-min Rain = 0
KREE 112345Z 01019G25KT M01/M10 A3049 RMK A01 T10121099  RH  052%=      5-min Rain = 0
KREE 112350Z 02018G25KT M01/M10 A305 RMK A01 T10131098  RH  053%=      5-min Rain = 0
KREE 112355Z 02017G23KT M01/M10 A305 RMK A01 T10141099  RH  053%=      5-min Rain = 0
KREE 120000Z 02018G23KT M01/M10 A305 RMK A01 T10141099  RH  053%=      5-min Rain = 0
KREE 120005Z 01016G21KT M02/M10 A3051 RMK A01 T10151099  RH  053%=      5-min Rain = 0
KREE 120010Z 02017G22KT M02/M10 A3051 RMK A01 T10151099  RH  053%=      5-min Rain = 0
KREE 120015Z 02016G21KT M02/M10 A3051 RMK A01 T10151099  RH  053%=      5-min Rain = 0
KREE 120020Z 02014KT M02/M10 A3051 RMK A01 T10161098  RH  054%=      5-min Rain = 0
KREE 120025Z 02013KT M02/M10 A3052 RMK A01 T10161097  RH  055%=      5-min Rain = 0
KREE 120030Z 01013KT M02/M10 A3052 RMK A01 T10171097  RH  055%=      5-min Rain = 0
KREE 120035Z 01016KT M02/M10 A3052 RMK A01 T10161098  RH  054%=      5-min Rain = 0
KREE 120040Z 01015KT M02/M10 A3052 RMK A01 T10171099  RH  054%=      5-min Rain = 0
KREE 120045Z 01014KT M02/M10 A3052 RMK A01 T10181099  RH  054%=      5-min Rain = 0
KREE 120050Z 01015KT M02/M10 A3052 RMK A01 T10181099  RH  054%=      5-min Rain = 0
KREE 120055Z 01016KT M02/M10 A3052 RMK A01 T10181100  RH  054%=      5-min Rain = 0
KREE 120100Z 01018KT M02/M10 A3053 RMK A01 T10181102  RH  054%=      5-min Rain = 0
KREE 120105Z 01017KT M02/M10 A3053 RMK A01 T10191104  RH  053%=      5-min Rain = 0
KREE 120110Z 01017G24KT M02/M11 A3053 RMK A01 T10201106  RH  053%=      5-min Rain = 0
KREE 120115Z 01016G21KT M02/M11 A3053 RMK A01 T10211107  RH  052%=      5-min Rain = 0
KREE 120120Z 02015G20KT M02/M11 A3054 RMK A01 T10221107  RH  053%=      5-min Rain = 0
KREE 120125Z 02018G24KT M02/M11 A3054 RMK A01 T10231111  RH  051%=      5-min Rain = 0
KREE 120130Z 02017KT M02/M11 A3054 RMK A01 T10241114  RH  051%=      5-min Rain = 0
KREE 120135Z 02015KT M03/M11 A3054 RMK A01 T10251114  RH  051%=      5-min Rain = 0
KREE 120140Z 02015KT M03/M11 A3055 RMK A01 T10261114  RH  052%=      5-min Rain = 0
KREE 120145Z 01014KT M03/M11 A3056 RMK A01 T10271113  RH  052%=      5-min Rain = 0
KREE 120150Z 01016G23KT M03/M12 A3056 RMK A01 T10281116  RH  051%=      5-min Rain = 0
KREE 120155Z 01018G25KT M03/M13 A3056 RMK A01 T10291125  RH  048%=      5-min Rain = 0
KREE 120200Z 02015G20KT M03/M13 A3056 RMK A01 T10301127  RH  048%=      5-min Rain = 0
KREE 120205Z 02016KT M03/M13 A3056 RMK A01 T10311127  RH  048%=      5-min Rain = 0
KREE 120210Z 02015G20KT M03/M13 A3055 RMK A01 T10311128  RH  048%=      5-min Rain = 0
KREE 120215Z 02015KT M03/M13 A3055 RMK A01 T10321129  RH  048%=      5-min Rain = 0
KREE 120220Z 02015G20KT M03/M13 A3055 RMK A01 T10331130  RH  048%=      5-min Rain = 0
KREE 120225Z 02012G17KT M03/M13 A3055 RMK A01 T10341129  RH  048%=      5-min Rain = 0
KREE 120230Z 02014KT M03/M13 A3056 RMK A01 T10341129  RH  049%=      5-min Rain = 0
KREE 120235Z 02012KT M04/M13 A3056 RMK A01 T10351129  RH  049%=      5-min Rain = 0
KREE 120240Z 02012KT M04/M13 A3056 RMK A01 T10361129  RH  049%=      5-min Rain = 0
KREE 120245Z 02012KT M04/M13 A3056 RMK A01 T10371128  RH  050%=      5-min Rain = 0
KREE 120250Z 02011KT M04/M13 A3056 RMK A01 T10371128  RH  050%=      5-min Rain = 0
KREE 120255Z 02011KT M04/M13 A3056 RMK A01 T10381127  RH  051%=      5-min Rain = 0
KREE 120300Z 02010KT M04/M13 A3056 RMK A01 T10391127  RH  051%=      5-min Rain = 0
KREE 120305Z 02009KT M04/M13 A3056 RMK A01 T10401125  RH  052%=      5-min Rain = 0
KREE 120310Z 02011KT M04/M13 A3057 RMK A01 T10401127  RH  052%=      5-min Rain = 0
KREE 120315Z 02010KT M04/M13 A3057 RMK A01 T10401126  RH  052%=      5-min Rain = 0
KREE 120320Z 02010KT M04/M13 A3057 RMK A01 T10411126  RH  052%=      5-min Rain = 0
KREE 120325Z 02009KT M04/M13 A3058 RMK A01 T10421126  RH  053%=      5-min Rain = 0
KREE 120330Z 02009KT M04/M13 A3058 RMK A01 T10431126  RH  053%=      5-min Rain = 0
KREE 120335Z 02008KT M04/M13 A3058 RMK A01 T10431126  RH  053%=      5-min Rain = 0
KREE 120340Z 02008KT M04/M13 A3059 RMK A01 T10441125  RH  054%=      5-min Rain = 0
KREE 120345Z 02007KT M05/M13 A3059 RMK A01 T10451125  RH  055%=      5-min Rain = 0
KREE 120350Z 02007KT M05/M12 A3059 RMK A01 T10461124  RH  055%=      5-min Rain = 0
KREE 120355Z 02007KT M05/M12 A3059 RMK A01 T10471124  RH  056%=      5-min Rain = 0
KREE 120400Z 02007KT M05/M12 A3059 RMK A01 T10491123  RH  057%=      5-min Rain = 0
KREE 120405Z 02007KT M05/M12 A3059 RMK A01 T10511122  RH  058%=      5-min Rain = 0
KREE 120410Z 03008KT M05/M12 A3059 RMK A01 T10491123  RH  057%=      5-min Rain = 0
KREE 120415Z 03009KT M05/M13 A3059 RMK A01 T10471126  RH  054%=      5-min Rain = 0
KREE 120420Z 03009KT M05/M13 A3059 RMK A01 T10471126  RH  055%=      5-min Rain = 0
KREE 120425Z 03009KT M05/M13 A3059 RMK A01 T10471128  RH  054%=      5-min Rain = 0
KREE 120430Z 03008KT M05/M13 A306 RMK A01 T10481128  RH  055%=      5-min Rain = 0
KREE 120435Z 02008KT M05/M13 A306 RMK A01 T10501127  RH  056%=      5-min Rain = 0
KREE 120440Z 02008KT M05/M13 A3059 RMK A01 T10511126  RH  057%=      5-min Rain = 0
KREE 120445Z 02008KT M05/M13 A3059 RMK A01 T10531125  RH  058%=      5-min Rain = 0
KREE 120450Z 02009KT M05/M13 A3059 RMK A01 T10521126  RH  057%=      5-min Rain = 0
KREE 120455Z 02010KT M05/M13 A3059 RMK A01 T10511127  RH  056%=      5-min Rain = 0
KREE 120500Z 02009KT M05/M13 A3059 RMK A01 T10521127  RH  056%=      5-min Rain = 0
KREE 120505Z 01007KT M05/M13 A3059 RMK A01 T10541125  RH  058%=      5-min Rain = 0
KREE 120510Z 01006KT M06/M12 A3059 RMK A01 T10551123  RH  060%=      5-min Rain = 0
KREE 120515Z 01006KT M06/M12 A3059 RMK A01 T10571121  RH  061%=      5-min Rain = 0
KREE 120520Z 01007KT M06/M12 A3059 RMK A01 T10581120  RH  063%=      5-min Rain = 0
KREE 120525Z 02006KT M06/M12 A3059 RMK A01 T10601119  RH  064%=      5-min Rain = 0
KREE 120530Z 02007KT M06/M12 A3059 RMK A01 T10591120  RH  063%=      5-min Rain = 0
KREE 120535Z 02007KT M06/M12 A306 RMK A01 T10571123  RH  061%=      5-min Rain = 0
KREE 120540Z 02006KT M06/M12 A306 RMK A01 T10581124  RH  060%=      5-min Rain = 0
KREE 120545Z 02007KT M06/M13 A306 RMK A01 T10591125  RH  060%=      5-min Rain = 0
KREE 120550Z 02008KT M06/M13 A306 RMK A01 T10581127  RH  059%=      5-min Rain = 0
KREE 120555Z 02008KT M06/M13 A306 RMK A01 T10581130  RH  057%=      5-min Rain = 0

Page generated in 0.0095 seconds.